Time;durP1;ratioP1;P1;durP2;ratioP2;P2;SDS_P1;SDS_P2;PMS_P1;PMS_P2;Temp;Humidity;BMP_temperature;BMP_pressure;BME280_temperature;BME280_humidity;BME280_pressure;Samples;Min_cycle;Max_cycle;Signal;HPM_P1;HPM_P2
2021/09/13 00:00:19;;;;;;;7.00;4.90;;;;;;;13.34;89.57;101070.83;110855;1207;61764;-75
2021/09/13 00:02:46;;;;;;;10.10;5.60;;;;;;;13.33;89.85;101072.91;110924;1199;75387;-74
2021/09/13 00:05:12;;;;;;;7.70;5.70;;;;;;;13.32;89.86;101073.68;111189;1207;70094;-75
2021/09/13 00:07:39;;;;;;;7.00;4.90;;;;;;;13.31;90.33;101073.95;110715;1207;72830;-75
2021/09/13 00:10:08;;;;;;;8.10;5.40;;;;;;;13.31;89.99;101070.96;110817;1200;62000;-75
2021/09/13 00:12:35;;;;;;;10.80;5.30;;;;;;;13.31;90.12;101073.17;110791;1203;61881;-76
2021/09/13 00:15:02;;;;;;;6.30;5.20;;;;;;;13.31;90.23;101076.33;110795;1207;75310;-75
2021/09/13 00:17:29;;;;;;;7.80;5.70;;;;;;;13.33;90.46;101076.11;111174;1200;71927;-75
2021/09/13 00:19:56;;;;;;;8.70;5.50;;;;;;;13.36;90.53;101075.78;110908;1207;72943;-75
2021/09/13 00:22:23;;;;;;;8.90;5.70;;;;;;;13.39;90.42;101075.70;110842;1206;62998;-76
2021/09/13 00:24:49;;;;;;;8.00;5.30;;;;;;;13.42;90.46;101077.02;110835;1200;61948;-77
2021/09/13 00:27:15;;;;;;;8.10;5.60;;;;;;;13.49;90.45;101074.89;110756;1206;61883;-75
2021/09/13 00:29:42;;;;;;;7.40;5.30;;;;;;;13.54;90.29;101072.83;110794;1206;61899;-76
2021/09/13 00:32:08;;;;;;;8.80;6.10;;;;;;;13.59;90.44;101072.20;110901;1207;62557;-74
2021/09/13 00:34:35;;;;;;;7.70;5.60;;;;;;;13.65;90.35;101070.50;110817;1207;61914;-76
2021/09/13 00:37:03;;;;;;;13.20;7.20;;;;;;;13.70;90.42;101072.83;110832;1207;61816;-77
2021/09/13 00:39:32;;;;;;;10.90;5.10;;;;;;;13.76;91.08;101070.86;110971;1207;76891;-76
2021/09/13 00:42:02;;;;;;;8.40;5.10;;;;;;;13.81;90.88;101072.96;110802;1207;69914;-78
2021/09/13 00:44:28;;;;;;;9.90;5.90;;;;;;;13.85;90.83;101074.92;110897;1209;73198;-77
2021/09/13 00:46:56;;;;;;;7.80;5.10;;;;;;;13.88;90.60;101075.50;110656;1209;61931;-76
2021/09/13 00:49:22;;;;;;;7.70;6.70;;;;;;;13.89;90.78;101076.75;111061;1200;61852;-77
2021/09/13 00:51:50;;;;;;;8.50;4.90;;;;;;;13.90;90.69;101079.74;110907;1207;76863;-76
2021/09/13 00:54:17;;;;;;;10.10;6.10;;;;;;;13.88;90.76;101081.57;110834;1207;70953;-76
2021/09/13 00:56:44;;;;;;;9.70;6.00;;;;;;;13.87;90.96;101079.46;110797;1207;62008;-76
2021/09/13 00:59:12;;;;;;;19.10;6.90;;;;;;;13.87;90.92;101074.83;110979;1206;62466;-75
2021/09/13 01:01:38;;;;;;;9.00;6.20;;;;;;;13.86;91.41;101073.84;110816;1207;61906;-75
2021/09/13 01:04:05;;;;;;;7.80;5.60;;;;;;;13.87;91.40;101074.87;110840;1208;75280;-75
2021/09/13 01:06:41;;;;;;;9.10;5.70;;;;;;;13.86;91.57;101077.62;110916;1207;61844;-74
2021/09/13 01:09:08;;;;;;;7.80;5.20;;;;;;;13.84;91.28;101078.54;111027;1207;73871;-74
2021/09/13 01:11:35;;;;;;;10.00;6.90;;;;;;;13.82;91.37;101073.02;110945;1207;62911;-75
2021/09/13 01:14:02;;;;;;;12.00;5.70;;;;;;;13.78;91.15;101077.70;110919;1207;61782;-75
2021/09/13 01:16:28;;;;;;;8.00;5.70;;;;;;;13.76;91.46;101079.55;110808;1207;61879;-75
2021/09/13 01:18:55;;;;;;;9.20;5.90;;;;;;;13.73;91.48;101083.16;110799;1200;61937;-76
2021/09/13 01:21:23;;;;;;;11.40;5.30;;;;;;;13.70;91.47;101082.33;110826;1207;62077;-75
2021/09/13 01:23:49;;;;;;;11.70;5.40;;;;;;;13.67;91.54;101083.04;110867;1208;61891;-75
2021/09/13 01:26:25;;;;;;;6.20;4.50;;;;;;;13.64;91.79;101087.64;110849;1209;61955;-75
2021/09/13 01:28:51;;;;;;;7.50;5.30;;;;;;;13.59;91.97;101083.13;110848;1207;61971;-75
2021/09/13 01:31:18;;;;;;;9.20;5.80;;;;;;;13.54;92.13;101082.30;110857;1207;61798;-74
2021/09/13 01:33:44;;;;;;;9.50;6.00;;;;;;;13.51;92.11;101081.04;111053;1208;61837;-77
2021/09/13 01:36:11;;;;;;;11.60;7.90;;;;;;;13.48;92.13;101081.06;110646;1201;62000;-76
2021/09/13 01:38:38;;;;;;;8.30;6.40;;;;;;;13.44;91.95;101077.71;110810;1207;61784;-76
2021/09/13 01:41:04;;;;;;;9.60;6.10;;;;;;;13.40;92.08;101076.63;110734;1201;75049;-75
2021/09/13 01:43:35;;;;;;;9.60;7.00;;;;;;;13.36;92.18;101075.51;111058;1207;61855;-77
2021/09/13 01:46:04;;;;;;;8.90;5.60;;;;;;;13.33;92.29;101079.63;110920;1207;72681;-75
2021/09/13 01:48:31;;;;;;;8.90;5.60;;;;;;;13.29;92.55;101078.50;110732;1209;64723;-77
2021/09/13 01:50:57;;;;;;;11.70;6.00;;;;;;;13.25;92.86;101080.66;110818;1207;61855;-75
2021/09/13 01:53:23;;;;;;;8.40;5.50;;;;;;;13.22;92.99;101087.78;110739;1208;61896;-74
2021/09/13 01:55:50;;;;;;;11.30;5.50;;;;;;;13.18;93.00;101085.16;110825;1207;61902;-76
2021/09/13 01:58:17;;;;;;;11.00;6.30;;;;;;;13.14;93.20;101092.33;111064;1203;61902;-77
2021/09/13 02:00:43;;;;;;;9.80;6.20;;;;;;;13.10;93.78;101092.84;110970;1200;63095;-76
2021/09/13 02:03:10;;;;;;;8.90;6.40;;;;;;;13.04;93.53;101096.08;110806;1207;61953;-75
2021/09/13 02:05:37;;;;;;;7.80;6.00;;;;;;;13.02;93.72;101097.23;111036;1200;75371;-75
2021/09/13 02:08:04;;;;;;;9.60;5.60;;;;;;;12.99;94.07;101098.98;110807;1207;61780;-75
2021/09/13 02:10:30;;;;;;;7.90;5.40;;;;;;;12.96;94.13;101099.01;110839;1207;72657;-74
2021/09/13 02:12:57;;;;;;;9.00;6.30;;;;;;;12.93;94.68;101100.28;110841;1207;61877;-76
2021/09/13 02:15:26;;;;;;;7.50;5.90;;;;;;;12.90;94.59;101096.05;111053;1201;61873;-76
2021/09/13 02:17:52;;;;;;;7.10;5.70;;;;;;;12.87;94.96;101096.09;111069;1207;75541;-75
2021/09/13 02:20:19;;;;;;;8.40;6.80;;;;;;;12.83;94.67;101093.73;110807;1207;61910;-77
2021/09/13 02:22:45;;;;;;;12.20;6.20;;;;;;;12.79;94.85;101097.52;110848;1202;61787;-75
2021/09/13 02:25:12;;;;;;;9.20;5.90;;;;;;;12.75;94.84;101103.50;110767;1203;62040;-76
2021/09/13 02:27:38;;;;;;;8.20;5.80;;;;;;;12.70;95.08;101101.90;110529;1209;61825;-77
2021/09/13 02:30:06;;;;;;;9.40;6.50;;;;;;;12.66;95.15;101097.27;110813;1209;61825;-75
2021/09/13 02:32:32;;;;;;;9.70;5.70;;;;;;;12.64;95.63;101095.70;110978;1207;71079;-76
2021/09/13 02:35:07;;;;;;;8.40;5.70;;;;;;;12.61;95.89;101096.59;110886;1208;61855;-77
2021/09/13 02:37:42;;;;;;;8.70;5.70;;;;;;;12.58;96.03;101098.71;111194;1208;63023;-75
2021/09/13 02:40:09;;;;;;;13.90;6.90;;;;;;;12.55;96.03;101101.92;111137;1207;61962;-75
2021/09/13 02:42:35;;;;;;;12.10;5.80;;;;;;;12.53;96.07;101099.12;110938;1201;76483;-75
2021/09/13 02:45:04;;;;;;;10.80;6.20;;;;;;;12.51;96.42;101102.39;110946;1208;72234;-75
2021/09/13 02:47:31;;;;;;;7.90;5.00;;;;;;;12.49;96.28;101103.10;110879;1207;73720;-75
2021/09/13 02:50:06;;;;;;;8.60;5.40;;;;;;;12.48;96.44;101104.02;110902;1207;62017;-78
2021/09/13 02:52:33;;;;;;;9.30;6.10;;;;;;;12.46;96.49;101108.33;110932;1207;61775;-76
2021/09/13 02:55:00;;;;;;;7.50;5.50;;;;;;;12.44;96.98;101104.23;110781;1208;74881;-76
2021/09/13 02:57:26;;;;;;;9.40;5.30;;;;;;;12.42;97.23;101107.27;110769;1208;62038;-77
2021/09/13 02:59:53;;;;;;;10.30;5.40;;;;;;;12.40;97.31;101105.32;110734;1208;61913;-76
2021/09/13 03:02:22;;;;;;;9.70;6.20;;;;;;;12.38;97.20;101107.17;110879;1208;61857;-76
2021/09/13 03:04:49;;;;;;;12.10;6.00;;;;;;;12.36;97.16;101112.25;111152;1201;61919;-76
2021/09/13 03:07:16;;;;;;;13.20;6.70;;;;;;;12.32;97.03;101115.02;110991;1200;76576;-75
2021/09/13 03:09:42;;;;;;;10.00;6.90;;;;;;;12.29;97.14;101111.77;110789;1207;61903;-78
2021/09/13 03:12:10;;;;;;;8.90;5.60;;;;;;;12.25;96.89;101111.88;110892;1207;73542;-75
2021/09/13 03:14:36;;;;;;;8.90;6.10;;;;;;;12.21;97.30;101108.04;110896;1207;61986;-75
2021/09/13 03:17:16;;;;;;;9.90;6.50;;;;;;;12.16;97.25;101105.64;111235;1206;61933;-75
2021/09/13 03:19:42;;;;;;;10.40;6.50;;;;;;;12.12;97.68;101103.64;110909;1208;74370;-76
2021/09/13 03:22:14;;;;;;;10.20;6.00;;;;;;;12.08;97.69;101103.27;110837;1206;61852;-76
2021/09/13 03:24:43;;;;;;;9.90;6.70;;;;;;;12.04;97.73;101101.53;110882;1208;72661;-75
2021/09/13 03:27:10;;;;;;;8.30;6.40;;;;;;;12.01;98.33;101101.38;110886;1207;61949;-77
2021/09/13 03:29:36;;;;;;;8.00;6.10;;;;;;;11.98;98.17;101099.69;110921;1207;61785;-75
2021/09/13 03:32:03;;;;;;;8.40;6.40;;;;;;;11.97;98.46;101100.53;110872;1203;61868;-75
2021/09/13 03:34:29;;;;;;;10.60;7.00;;;;;;;11.95;98.61;101098.98;110854;1207;62321;-77
2021/09/13 03:36:59;;;;;;;10.30;5.60;;;;;;;11.94;98.86;101100.55;110836;1208;61856;-77
2021/09/13 03:39:26;;;;;;;9.90;6.00;;;;;;;11.93;99.06;101101.41;111233;1203;61876;-76
2021/09/13 03:41:52;;;;;;;7.50;6.00;;;;;;;11.90;98.98;101100.23;110850;1207;61903;-76
2021/09/13 03:44:18;;;;;;;10.20;6.20;;;;;;;11.90;99.21;101096.61;110748;1208;61780;-76
2021/09/13 03:46:45;;;;;;;8.40;6.00;;;;;;;11.88;99.49;101091.30;110821;1206;61906;-77
2021/09/13 03:49:11;;;;;;;11.20;6.50;;;;;;;11.86;99.32;101088.80;110811;1208;61807;-76
2021/09/13 03:51:38;;;;;;;14.90;7.60;;;;;;;11.85;99.18;101089.45;110772;1208;62061;-75
2021/09/13 03:54:05;;;;;;;8.60;5.70;;;;;;;11.83;99.17;101088.19;110784;1207;61880;-78
2021/09/13 03:56:31;;;;;;;9.50;6.20;;;;;;;11.80;99.24;101090.54;110856;1209;61966;-76
2021/09/13 03:58:58;;;;;;;10.90;6.40;;;;;;;11.76;99.21;101089.41;110842;1207;61810;-77
2021/09/13 04:01:24;;;;;;;8.20;5.90;;;;;;;11.76;99.56;101092.63;110767;1207;61924;-75
2021/09/13 04:03:53;;;;;;;12.00;6.30;;;;;;;11.75;99.51;101092.37;110877;1206;62797;-77
2021/09/13 04:06:25;;;;;;;8.70;5.80;;;;;;;11.75;99.54;101092.36;110758;1207;61893;-78
2021/09/13 04:11:46;;;;;;;9.70;5.90;;;;;;;11.73;99.29;101090.44;110878;1208;70793;-76
2021/09/13 04:14:13;;;;;;;11.80;5.40;;;;;;;11.74;99.54;101090.33;110883;1202;73673;-77
2021/09/13 04:16:40;;;;;;;9.30;5.80;;;;;;;11.73;99.54;101090.08;110810;1208;62174;-80
2021/09/13 04:19:07;;;;;;;6.60;5.00;;;;;;;11.73;99.50;101090.61;110909;1206;61771;-77
2021/09/13 04:21:33;;;;;;;10.10;5.40;;;;;;;11.73;99.57;101086.75;110743;1208;76398;-79
2021/09/13 04:24:00;;;;;;;13.70;6.00;;;;;;;11.71;99.67;101088.32;110881;1199;61917;-76
2021/09/13 04:26:26;;;;;;;11.90;5.70;;;;;;;11.72;99.58;101086.69;110934;1209;61887;-77
2021/09/13 04:28:53;;;;;;;9.90;5.60;;;;;;;11.72;99.54;101090.25;110779;1207;61795;-77
2021/09/13 04:31:19;;;;;;;11.70;6.00;;;;;;;11.71;99.56;101090.67;110820;1207;61906;-79
2021/09/13 04:33:46;;;;;;;7.60;5.50;;;;;;;11.72;99.65;101088.98;110957;1206;61931;-80
2021/09/13 04:36:17;;;;;;;8.30;5.30;;;;;;;11.72;99.78;101086.79;110902;1207;71230;-84
2021/09/13 04:38:49;;;;;;;7.80;5.30;;;;;;;11.72;99.83;101082.20;111035;1207;73605;-81
2021/09/13 04:41:23;;;;;;;10.60;5.30;;;;;;;11.75;99.99;101091.64;112884;1202;61809;-78
2021/09/13 04:43:49;;;;;;;7.60;5.70;;;;;;;11.78;100.00;101095.17;111013;1208;61925;-78
2021/09/13 04:46:15;;;;;;;6.70;5.40;;;;;;;11.81;100.00;101095.31;110870;1206;61948;-79
2021/09/13 04:48:42;;;;;;;6.50;4.80;;;;;;;11.85;99.90;101096.93;110961;1201;61870;-78
2021/09/13 04:51:09;;;;;;;8.50;5.00;;;;;;;11.85;99.51;101097.23;110925;1208;73461;-83
2021/09/13 04:53:35;;;;;;;8.10;5.10;;;;;;;11.86;99.45;101097.48;110916;1208;61887;-83
2021/09/13 04:56:07;;;;;;;7.10;5.10;;;;;;;11.87;99.97;101099.39;111263;1209;61927;-79
2021/09/13 04:58:34;;;;;;;10.10;5.30;;;;;;;11.87;99.92;101104.66;111214;1203;76724;-81
2021/09/13 05:01:00;;;;;;;6.90;4.20;;;;;;;11.87;99.85;101103.11;110934;1199;61786;-77
2021/09/13 05:03:27;;;;;;;12.20;5.40;;;;;;;11.87;99.75;101100.95;110951;1207;72506;-80
2021/09/13 05:05:55;;;;;;;6.00;4.20;;;;;;;11.88;99.63;101100.15;110983;1208;63041;-77
2021/09/13 05:08:22;;;;;;;6.60;4.60;;;;;;;11.91;99.94;101097.94;111031;1207;61918;-78
2021/09/13 05:10:48;;;;;;;6.70;4.30;;;;;;;11.95;99.91;101099.91;110895;1207;61797;-79
2021/09/13 05:13:15;;;;;;;7.40;4.40;;;;;;;11.96;99.54;101098.64;110937;1208;61883;-80
2021/09/13 05:15:41;;;;;;;8.50;4.20;;;;;;;11.99;99.33;101100.33;111428;1209;61863;-80
2021/09/13 05:18:08;;;;;;;10.00;4.30;;;;;;;12.00;99.11;101101.08;110989;1208;62003;-79
2021/09/13 05:20:34;;;;;;;6.60;3.90;;;;;;;12.02;99.11;101105.25;111131;1208;61916;-78
2021/09/13 05:23:02;;;;;;;6.30;3.60;;;;;;;12.03;98.93;101113.16;110916;1199;62999;-79
2021/09/13 05:25:29;;;;;;;7.80;4.20;;;;;;;12.05;99.03;101112.05;110855;1208;71340;-80
2021/09/13 05:27:55;;;;;;;8.90;4.60;;;;;;;12.09;99.07;101109.67;111003;1203;61897;-80
2021/09/13 05:30:25;;;;;;;7.30;4.00;;;;;;;12.13;99.14;101113.56;111161;1208;61973;-78
2021/09/13 05:32:51;;;;;;;7.60;3.70;;;;;;;12.17;99.00;101112.78;111027;1208;61881;-80
2021/09/13 05:35:18;;;;;;;10.20;4.40;;;;;;;12.22;98.84;101111.36;111046;1208;61882;-78
2021/09/13 05:37:44;;;;;;;7.30;4.30;;;;;;;12.26;99.04;101109.64;111128;1208;70967;-79
2021/09/13 05:40:11;;;;;;;8.10;4.20;;;;;;;12.30;99.07;101113.23;111127;1207;62627;-79
2021/09/13 05:42:41;;;;;;;6.80;4.30;;;;;;;12.35;98.68;101114.88;110900;1209;61995;-82
2021/09/13 05:45:08;;;;;;;7.20;4.50;;;;;;;12.39;98.93;101109.96;110961;1208;61928;-79
2021/09/13 05:47:34;;;;;;;7.60;4.00;;;;;;;12.43;98.78;101112.45;111174;1208;75524;-82
2021/09/13 05:50:01;;;;;;;5.70;3.70;;;;;;;12.49;98.51;101114.84;111050;1203;61896;-79
2021/09/13 05:52:27;;;;;;;9.30;4.20;;;;;;;12.55;98.74;101111.34;111005;1208;72585;-77
2021/09/13 05:55:03;;;;;;;7.00;4.70;;;;;;;12.62;98.69;101111.32;111222;1199;62402;-80
2021/09/13 05:57:33;;;;;;;5.60;3.90;;;;;;;12.70;98.65;101106.77;110948;1209;61824;-79
2021/09/13 06:00:00;;;;;;;9.00;4.40;;;;;;;12.75;98.63;101105.13;111025;1209;75881;-80
2021/09/13 06:02:32;;;;;;;7.20;3.60;;;;;;;12.81;98.30;101108.81;111073;1206;71268;-79
2021/09/13 06:04:59;;;;;;;5.60;3.60;;;;;;;12.89;98.31;101104.14;111347;1207;72549;-81
2021/09/13 06:07:32;;;;;;;8.20;3.60;;;;;;;13.00;98.29;101107.14;111257;1207;62137;-79
2021/09/13 06:10:06;;;;;;;7.80;4.30;;;;;;;13.16;98.33;101111.13;111087;1208;61879;-80
2021/09/13 06:12:32;;;;;;;11.20;3.90;;;;;;;13.25;97.68;101112.47;110894;1208;76285;-81
2021/09/13 06:15:03;;;;;;;7.70;3.90;;;;;;;13.32;97.56;101112.75;111131;1206;71882;-79
2021/09/13 06:17:30;;;;;;;5.20;3.30;;;;;;;13.41;97.48;101111.66;111250;1207;73820;-80
2021/09/13 06:19:57;;;;;;;11.00;4.30;;;;;;;13.50;97.07;101117.20;111029;1206;63021;-80
2021/09/13 06:22:23;;;;;;;6.60;2.90;;;;;;;13.60;96.88;101117.05;111259;1208;61835;-80
2021/09/13 06:24:50;;;;;;;14.60;8.10;;;;;;;13.73;96.54;101121.77;110931;1208;61900;-81
2021/09/13 06:27:16;;;;;;;5.30;3.20;;;;;;;13.83;96.24;101128.33;111054;1207;62561;-81
2021/09/13 06:29:43;;;;;;;6.20;3.00;;;;;;;13.88;96.00;101126.34;111020;1208;61829;-80
2021/09/13 06:32:09;;;;;;;7.00;3.30;;;;;;;13.97;96.09;101129.36;110968;1209;61372;-79
2021/09/13 06:34:36;;;;;;;7.50;3.60;;;;;;;14.06;96.41;101130.50;111018;1201;61933;-81
2021/09/13 06:37:03;;;;;;;10.50;3.40;;;;;;;14.14;96.47;101127.05;111233;1207;61906;-80
2021/09/13 06:39:30;;;;;;;4.40;2.70;;;;;;;14.24;96.08;101131.23;111053;1207;70996;-77
2021/09/13 06:41:56;;;;;;;7.70;2.50;;;;;;;14.29;95.75;101135.36;111432;1208;61906;-80
2021/09/13 06:44:25;;;;;;;4.80;2.40;;;;;;;14.32;95.37;101137.92;111170;1208;61966;-80
2021/09/13 06:47:21;;;;;;;7.10;3.10;;;;;;;14.36;95.39;101142.34;111318;1202;126533;-75
2021/09/13 06:49:48;;;;;;;5.70;2.50;;;;;;;14.44;95.29;101146.35;110584;1207;76305;-75
2021/09/13 06:52:14;;;;;;;5.10;2.80;;;;;;;14.51;95.11;101148.00;110618;1207;70993;-74
2021/09/13 06:54:41;;;;;;;5.50;2.30;;;;;;;14.59;94.91;101150.20;110580;1207;61894;-75
2021/09/13 06:57:07;;;;;;;6.40;2.70;;;;;;;14.67;94.66;101152.98;110515;1206;61867;-75
2021/09/13 06:59:34;;;;;;;7.90;3.00;;;;;;;14.74;94.67;101157.24;110713;1207;61848;-77
2021/09/13 07:02:01;;;;;;;6.90;1.90;;;;;;;14.80;94.39;101161.33;110659;1207;76600;-74
2021/09/13 07:04:29;;;;;;;6.80;2.70;;;;;;;14.83;94.28;101165.95;110812;1207;70929;-75
2021/09/13 07:06:56;;;;;;;5.90;2.40;;;;;;;14.84;94.35;101166.13;110853;1207;72258;-75
2021/09/13 07:09:22;;;;;;;8.10;3.70;;;;;;;14.84;94.48;101172.71;110908;1206;61857;-76
2021/09/13 07:11:49;;;;;;;5.40;3.40;;;;;;;14.86;94.72;101171.74;110873;1203;61884;-74
2021/09/13 07:14:15;;;;;;;6.30;2.60;;;;;;;14.87;94.78;101175.78;110807;1206;61984;-75
2021/09/13 07:16:42;;;;;;;8.90;3.20;;;;;;;14.87;94.98;101177.16;110879;1208;61896;-74
2021/09/13 07:19:09;;;;;;;9.90;3.30;;;;;;;14.88;95.06;101179.48;110723;1207;62017;-74
2021/09/13 07:21:35;;;;;;;9.30;4.00;;;;;;;14.92;94.96;101179.64;110817;1207;61939;-74
2021/09/13 07:24:02;;;;;;;8.40;3.30;;;;;;;14.97;94.88;101181.05;110841;1208;61891;-75
2021/09/13 07:26:29;;;;;;;4.20;2.00;;;;;;;15.04;94.58;101187.35;110617;1206;75875;-76
2021/09/13 07:28:55;;;;;;;8.80;3.70;;;;;;;15.07;94.37;101190.17;110679;1207;71000;-76
2021/09/13 07:31:22;;;;;;;9.40;3.20;;;;;;;15.09;94.04;101197.22;110798;1206;73714;-75
2021/09/13 07:33:48;;;;;;;6.70;3.40;;;;;;;15.11;94.31;101196.16;110638;1207;62648;-74
2021/09/13 07:36:15;;;;;;;6.10;2.60;;;;;;;15.09;93.96;101197.92;110578;1207;61839;-76
2021/09/13 07:38:41;;;;;;;8.70;4.90;;;;;;;15.07;94.21;101197.24;110544;1206;61826;-73
2021/09/13 07:41:08;;;;;;;8.30;2.90;;;;;;;15.06;94.47;101199.20;110677;1208;61926;-75
2021/09/13 07:43:34;;;;;;;9.50;5.20;;;;;;;15.03;94.53;101200.25;110527;1208;61882;-75
2021/09/13 07:46:01;;;;;;;11.60;4.10;;;;;;;15.02;94.50;101202.70;110609;1208;61903;-75
2021/09/13 07:48:28;;;;;;;11.60;4.10;;;;;;;15.05;94.60;101202.86;110665;1207;61898;-74
2021/09/13 07:50:54;;;;;;;6.80;3.20;;;;;;;15.11;94.61;101205.73;110679;1208;76065;-75
2021/09/13 07:53:21;;;;;;;8.30;4.20;;;;;;;15.15;94.07;101205.41;110526;1209;61894;-73
2021/09/13 07:55:47;;;;;;;10.40;5.10;;;;;;;15.17;94.01;101207.14;110500;1208;61877;-74
2021/09/13 07:58:14;;;;;;;6.40;3.40;;;;;;;15.17;93.94;101205.67;110691;1207;61810;-73
2021/09/13 08:00:41;;;;;;;8.80;4.80;;;;;;;15.18;93.73;101211.69;110528;1209;61912;-74
2021/09/13 08:03:08;;;;;;;11.00;4.70;;;;;;;15.18;93.71;101214.98;110540;1208;76329;-75
2021/09/13 08:05:35;;;;;;;10.20;5.00;;;;;;;15.19;93.82;101213.95;110531;1208;72118;-75
2021/09/13 08:08:02;;;;;;;16.20;4.00;;;;;;;15.21;93.62;101218.91;110596;1207;61899;-75
2021/09/13 08:10:29;;;;;;;12.50;4.80;;;;;;;15.24;93.43;101223.20;110652;1208;61872;-75
2021/09/13 08:12:55;;;;;;;12.10;4.00;;;;;;;15.27;93.25;101226.65;110519;1207;61886;-75
2021/09/13 08:15:23;;;;;;;17.70;7.00;;;;;;;15.27;93.10;101224.52;110539;1208;61901;-76
2021/09/13 08:17:50;;;;;;;9.30;4.00;;;;;;;15.28;93.26;101225.34;110551;1206;71051;-74
2021/09/13 08:20:18;;;;;;;10.10;3.90;;;;;;;15.28;93.21;101231.88;110798;1207;71794;-74
2021/09/13 08:22:45;;;;;;;15.20;5.40;;;;;;;15.29;93.16;101232.00;110599;1207;61901;-73
2021/09/13 08:25:12;;;;;;;12.00;4.40;;;;;;;15.31;93.35;101239.27;110649;1207;61967;-75
2021/09/13 08:27:39;;;;;;;10.40;4.70;;;;;;;15.33;93.11;101241.98;110726;1208;74568;-74
2021/09/13 08:30:06;;;;;;;13.10;5.70;;;;;;;15.35;92.94;101242.65;110651;1208;61832;-76
2021/09/13 08:32:33;;;;;;;11.80;5.20;;;;;;;15.40;92.93;101242.58;110748;1208;73301;-74
2021/09/13 08:34:59;;;;;;;8.00;4.40;;;;;;;15.50;92.83;101247.93;110436;1208;61976;-76
2021/09/13 08:37:26;;;;;;;14.10;6.80;;;;;;;15.63;92.32;101252.38;110412;1208;61894;-75
2021/09/13 08:39:52;;;;;;;11.00;4.70;;;;;;;15.78;91.94;101252.77;110464;1208;61912;-76
2021/09/13 08:42:19;;;;;;;13.30;6.40;;;;;;;15.94;90.94;101259.33;110507;1207;62721;-75
2021/09/13 08:44:49;;;;;;;10.40;4.60;;;;;;;16.09;90.50;101259.63;110479;1207;73730;-74
2021/09/13 08:47:28;;;;;;;10.40;5.50;;;;;;;16.19;89.36;101259.03;110879;1208;63173;-74
2021/09/13 08:50:03;;;;;;;10.80;4.80;;;;;;;16.29;88.92;101264.23;110484;1207;61903;-75
2021/09/13 08:52:30;;;;;;;12.00;4.90;;;;;;;16.36;88.05;101269.98;110519;1208;76867;-74
2021/09/13 08:54:56;;;;;;;11.10;5.70;;;;;;;16.41;87.58;101270.25;110519;1206;71166;-74
2021/09/13 08:57:25;;;;;;;12.80;5.70;;;;;;;16.48;87.76;101271.71;110711;1206;73759;-75
2021/09/13 08:59:53;;;;;;;12.10;6.10;;;;;;;16.62;87.64;101273.19;110727;1207;61902;-75
2021/09/13 09:02:20;;;;;;;14.70;5.80;;;;;;;16.79;87.52;101273.69;110546;1208;61899;-75
2021/09/13 09:04:55;;;;;;;15.90;4.80;;;;;;;16.92;86.27;101278.85;110602;1209;75432;-76
2021/09/13 09:07:23;;;;;;;9.40;4.90;;;;;;;16.99;84.97;101279.00;110535;1208;71008;-75
2021/09/13 09:10:18;;;;;;;9.40;4.20;;;;;;;17.10;84.07;101280.29;110589;1206;72439;-76
2021/09/13 09:13:00;;;;;;;9.20;4.40;;;;;;;17.24;84.03;101275.73;110588;1208;62709;-75
2021/09/13 09:15:27;;;;;;;15.10;5.20;;;;;;;17.40;84.49;101276.79;110592;1208;62992;-75
2021/09/13 09:17:56;;;;;;;11.60;5.00;;;;;;;17.55;83.86;101279.50;110874;1206;76550;-74
2021/09/13 09:20:23;;;;;;;7.80;4.10;;;;;;;17.71;83.49;101280.77;110678;1207;70975;-75
2021/09/13 09:23:05;;;;;;;10.20;5.20;;;;;;;17.86;82.57;101285.36;110920;1208;73887;-74
2021/09/13 09:25:36;;;;;;;8.80;4.20;;;;;;;18.01;81.85;101285.80;110915;1208;62976;-75
2021/09/13 09:28:06;;;;;;;7.90;4.60;;;;;;;18.06;80.65;101288.48;110548;1207;62024;-75
2021/09/13 09:30:41;;;;;;;7.70;4.60;;;;;;;18.03;79.86;101293.98;110611;1207;76466;-74
2021/09/13 09:33:19;;;;;;;9.10;4.70;;;;;;;17.94;80.14;101294.98;110696;1208;71777;-74
2021/09/13 09:35:49;;;;;;;7.20;4.30;;;;;;;17.82;79.53;101300.89;110835;1206;72730;-74
2021/09/13 09:38:34;;;;;;;6.40;4.50;;;;;;;17.77;80.20;101301.17;110755;1207;62918;-74
2021/09/13 09:41:17;;;;;;;7.50;4.50;;;;;;;17.86;80.62;101303.16;110478;1208;61901;-75
2021/09/13 09:43:56;;;;;;;7.60;4.50;;;;;;;18.00;79.44;101305.67;110440;1207;75366;-75
2021/09/13 09:46:23;;;;;;;9.70;4.90;;;;;;;18.08;78.96;101311.15;110449;1207;72074;-75
2021/09/13 09:49:02;;;;;;;10.80;5.30;;;;;;;18.12;78.76;101309.03;110910;1208;71729;-76
2021/09/13 09:51:34;;;;;;;11.90;4.50;;;;;;;18.12;78.64;101304.90;110774;1208;61892;-77
2021/09/13 09:54:30;;;;;;;10.10;4.60;;;;;;;18.05;78.45;101309.29;110800;1207;61896;-78
2021/09/13 09:56:58;;;;;;;6.40;4.20;;;;;;;17.97;78.91;101302.28;110713;1208;75353;-76
2021/09/13 09:59:32;;;;;;;12.20;5.60;;;;;;;17.90;78.67;101300.45;110830;1199;70962;-75
2021/09/13 10:01:59;;;;;;;6.50;3.70;;;;;;;17.89;79.14;101298.99;110804;1203;73604;-76
2021/09/13 10:04:28;;;;;;;8.80;5.10;;;;;;;17.93;78.61;101292.95;111042;1207;61923;-77
2021/09/13 10:06:57;;;;;;;8.80;4.70;;;;;;;18.08;79.04;101282.02;110494;1207;61938;-75
2021/09/13 10:09:27;;;;;;;16.50;6.30;;;;;;;18.34;78.12;101281.74;110823;1199;75324;-77
2021/09/13 10:11:56;;;;;;;10.50;3.50;;;;;;;18.61;76.97;101278.38;110564;1199;70887;-76
2021/09/13 10:14:25;;;;;;;10.50;5.10;;;;;;;18.83;75.56;101274.48;110681;1206;72457;-76
2021/09/13 10:16:53;;;;;;;12.60;5.40;;;;;;;19.15;75.73;101273.94;110826;1207;61899;-76
2021/09/13 10:19:43;;;;;;;10.30;5.10;;;;;;;19.57;75.11;101275.87;111174;1208;61322;-75
2021/09/13 10:22:10;;;;;;;6.10;3.30;;;;;;;19.89;72.63;101278.81;110755;1207;74164;-74
2021/09/13 10:24:39;;;;;;;6.90;2.90;;;;;;;20.15;71.97;101277.55;110513;1207;73196;-74
2021/09/13 10:27:11;;;;;;;6.90;2.90;;;;;;;20.27;69.28;101273.16;110672;1208;72509;-75
2021/09/13 10:29:40;;;;;;;9.40;3.50;;;;;;;20.37;69.21;101273.48;110495;1207;61884;-74
2021/09/13 10:32:13;;;;;;;6.50;2.60;;;;;;;20.43;68.82;101275.11;110725;1208;61879;-76
2021/09/13 10:34:40;;;;;;;6.10;3.30;;;;;;;20.38;67.93;101275.21;110722;1207;75889;-75
2021/09/13 10:37:14;;;;;;;6.10;3.20;;;;;;;20.29;67.20;101275.60;110458;1208;61979;-75
2021/09/13 10:39:56;;;;;;;;;;;;;;;20.27;67.82;101278.16;110455;1208;72414;-74
2021/09/13 10:42:34;;;;;;;6.80;3.40;;;;;;;20.29;68.52;101278.59;110489;1207;61868;-76
2021/09/13 10:45:07;;;;;;;13.30;4.50;;;;;;;20.32;67.98;101278.96;110510;1208;61867;-76
2021/09/13 10:47:33;;;;;;;13.90;3.70;;;;;;;20.30;67.36;101274.44;110692;1208;74931;-76
2021/09/13 10:50:20;;;;;;;7.80;3.50;;;;;;;20.34;67.55;101279.61;110676;1208;71357;-75
2021/09/13 10:52:49;;;;;;;8.40;3.20;;;;;;;20.30;66.99;101281.73;110711;1208;73735;-74
2021/09/13 10:55:18;;;;;;;5.60;2.60;;;;;;;20.32;67.03;101283.70;110768;1207;61936;-73
2021/09/13 10:58:17;;;;;;;7.20;3.30;;;;;;;20.28;66.27;101284.95;110801;1207;62000;-76
2021/09/13 11:00:43;;;;;;;6.20;2.30;;;;;;;20.18;66.47;101280.88;110705;1207;75282;-75
2021/09/13 11:03:23;;;;;;;5.60;2.70;;;;;;;20.03;66.93;101282.70;110691;1207;69752;-74
2021/09/13 11:06:11;;;;;;;5.10;2.00;;;;;;;19.92;66.97;101281.90;110708;1207;72162;-75
2021/09/13 11:08:38;;;;;;;3.90;2.20;;;;;;;19.95;67.32;101282.77;110873;1207;61920;-73
2021/09/13 11:11:23;;;;;;;7.80;2.10;;;;;;;20.07;66.90;101280.87;110509;1200;61887;-75
2021/09/13 11:14:27;;;;;;;5.80;3.00;;;;;;;20.16;66.49;101280.15;110545;1208;75496;-75
2021/09/13 11:17:00;;;;;;;2.70;1.30;;;;;;;20.25;66.18;101276.11;110538;1208;72153;-75
2021/09/13 11:19:28;;;;;;;3.70;1.70;;;;;;;20.29;64.67;101274.79;110700;1200;72321;-76
2021/09/13 11:22:01;;;;;;;4.60;1.70;;;;;;;20.24;64.66;101268.88;110450;1207;61922;-75
2021/09/13 11:24:30;;;;;;;7.80;2.00;;;;;;;20.29;64.82;101272.04;110478;1206;63117;-73